This is the latest recevied weather packets stored in our database for station/object N0QWM. If no packets are shown the sender has not sent any weather packets the latest 10 day(s).
| Time | Temp. | Humidity | Pressure | Rain* | Wind** | Luminosity | Snow |
|---|---|---|---|---|---|---|---|
| 1788534491 | 32.78° C | 66% | 1021.8 hPa | 0 mm | - | 702 W/m² | - |
| 1788534186 | 32.78° C | 65% | 1022.3 hPa | 0 mm | - | 672 W/m² | - |
| 1788533884 | 32.22° C | 68% | 1021.9 hPa | 0 mm | - | 610 W/m² | - |
| 1788533580 | 32.22° C | 68% | 1022 hPa | 0 mm | - | 560 W/m² | - |
| 1788533275 | 31.67° C | 69% | 1021.9 hPa | 0 mm | - | 559 W/m² | - |
| 1788532971 | 32.22° C | 68% | 1022.1 hPa | 0 mm | - | 548 W/m² | - |
| 1788532667 | 31.11° C | 70% | 1021.9 hPa | 0 mm | - | 528 W/m² | - |
| 1788532363 | 31.11° C | 70% | 1022 hPa | 0 mm | - | 487 W/m² | - |
| 1788532059 | 30.56° C | 70% | 1021.9 hPa | 0 mm | - | 471 W/m² | - |
| 1788531755 | 30.56° C | 71% | 1022.1 hPa | 0 mm | - | 469 W/m² | - |
| 1788531455 | 31.11° C | 69% | 1022.1 hPa | 0 mm | - | 459 W/m² | - |
| 1788531150 | 31.11° C | 69% | 1022.3 hPa | 0 mm | - | 430 W/m² | - |
| 1788530846 | 30.56° C | 72% | 1022.1 hPa | 0 mm | - | 390 W/m² | - |
| 1788530541 | 30° C | 72% | 1022 hPa | 0 mm | - | 340 W/m² | - |
| 1788530239 | 30° C | 73% | 1022.1 hPa | 0 mm | - | 324 W/m² | - |
| 1788529935 | 29.44° C | 78% | 1022 hPa | 0 mm | - | 307 W/m² | - |
| 1788529631 | 28.33° C | 80% | 1022 hPa | 0 mm | - | 298 W/m² | - |
| 1788529330 | 27.78° C | 84% | 1021.9 hPa | 0 mm | - | 255 W/m² | - |
| 1788529025 | 27.22° C | 86% | 1022 hPa | 0 mm | - | 141 W/m² | - |
| 1788528721 | 27.22° C | 86% | 1022.1 hPa | 0 mm | - | 91 W/m² | - |
| 1788528420 | 27.22° C | 86% | 1021.8 hPa | 0 mm | - | 56 W/m² | - |
| 1788528116 | 26.67° C | 87% | 1021.9 hPa | 0 mm | - | 49 W/m² | - |
| 1788527814 | 26.67° C | 87% | 1021.8 hPa | 0 mm | - | 61 W/m² | - |
| 1788527511 | 26.11° C | 90% | 1022 hPa | 0 mm | - | 55 W/m² | - |
| 1788527205 | 26.11° C | 92% | 1021.9 hPa | 0 mm | - | 84 W/m² | - |
* Rain latest hour (hover to see other rain measurements)
** Current wind speed in m/s (hover to see current wind gust speed)